sensor_id;sensor_type;location;lat;lon;timestamp;P1;durP1;ratioP1;P2;durP2;ratioP2
31760;SDS011;18335;51.486;7.562;2023-03-16T00:00:45;12.57;;;4.53;;
31760;SDS011;18335;51.486;7.562;2023-03-16T00:03:12;12.65;;;4.95;;
31760;SDS011;18335;51.486;7.562;2023-03-16T00:05:43;9.30;;;4.43;;
31760;SDS011;18335;51.486;7.562;2023-03-16T00:08:12;14.70;;;4.65;;
31760;SDS011;18335;51.486;7.562;2023-03-16T00:10:39;10.18;;;3.90;;
31760;SDS011;18335;51.486;7.562;2023-03-16T00:13:11;12.55;;;4.28;;
31760;SDS011;18335;51.486;7.562;2023-03-16T00:15:38;10.57;;;3.92;;
31760;SDS011;18335;51.486;7.562;2023-03-16T00:18:05;12.40;;;4.05;;
31760;SDS011;18335;51.486;7.562;2023-03-16T00:20:32;9.20;;;4.30;;
31760;SDS011;18335;51.486;7.562;2023-03-16T00:22:59;10.75;;;3.92;;
31760;SDS011;18335;51.486;7.562;2023-03-16T00:25:28;13.73;;;4.85;;
31760;SDS011;18335;51.486;7.562;2023-03-16T00:27:57;11.07;;;3.53;;
31760;SDS011;18335;51.486;7.562;2023-03-16T00:30:28;8.77;;;3.97;;
31760;SDS011;18335;51.486;7.562;2023-03-16T00:32:54;15.13;;;5.70;;
31760;SDS011;18335;51.486;7.562;2023-03-16T00:35:21;9.98;;;4.75;;
31760;SDS011;18335;51.486;7.562;2023-03-16T00:37:48;11.00;;;3.90;;
31760;SDS011;18335;51.486;7.562;2023-03-16T00:40:16;11.88;;;3.80;;
31760;SDS011;18335;51.486;7.562;2023-03-16T00:42:44;12.20;;;4.30;;
31760;SDS011;18335;51.486;7.562;2023-03-16T00:45:11;13.88;;;4.85;;
31760;SDS011;18335;51.486;7.562;2023-03-16T00:47:38;13.52;;;3.78;;
31760;SDS011;18335;51.486;7.562;2023-03-16T00:50:07;9.38;;;3.60;;
31760;SDS011;18335;51.486;7.562;2023-03-16T00:52:35;10.23;;;4.25;;
31760;SDS011;18335;51.486;7.562;2023-03-16T00:55:02;13.25;;;3.58;;
31760;SDS011;18335;51.486;7.562;2023-03-16T00:57:29;11.98;;;3.63;;
31760;SDS011;18335;51.486;7.562;2023-03-16T00:59:57;13.68;;;3.80;;
31760;SDS011;18335;51.486;7.562;2023-03-16T01:02:25;10.77;;;3.90;;
31760;SDS011;18335;51.486;7.562;2023-03-16T01:04:52;12.82;;;3.53;;
31760;SDS011;18335;51.486;7.562;2023-03-16T01:07:19;8.68;;;3.05;;
31760;SDS011;18335;51.486;7.562;2023-03-16T01:09:47;10.10;;;4.13;;
31760;SDS011;18335;51.486;7.562;2023-03-16T01:12:14;8.95;;;3.40;;
31760;SDS011;18335;51.486;7.562;2023-03-16T01:14:43;9.82;;;3.15;;
31760;SDS011;18335;51.486;7.562;2023-03-16T01:17:12;9.57;;;3.47;;
31760;SDS011;18335;51.486;7.562;2023-03-16T01:19:42;6.95;;;2.67;;
31760;SDS011;18335;51.486;7.562;2023-03-16T01:22:10;9.10;;;3.30;;
31760;SDS011;18335;51.486;7.562;2023-03-16T01:24:37;10.73;;;3.42;;
31760;SDS011;18335;51.486;7.562;2023-03-16T01:27:05;15.63;;;5.72;;
31760;SDS011;18335;51.486;7.562;2023-03-16T01:29:32;8.88;;;3.10;;
31760;SDS011;18335;51.486;7.562;2023-03-16T01:32:00;8.90;;;3.58;;
31760;SDS011;18335;51.486;7.562;2023-03-16T01:34:30;11.02;;;3.47;;
31760;SDS011;18335;51.486;7.562;2023-03-16T01:36:57;8.93;;;3.75;;
31760;SDS011;18335;51.486;7.562;2023-03-16T01:39:36;6.22;;;2.97;;
31760;SDS011;18335;51.486;7.562;2023-03-16T01:42:03;9.45;;;2.95;;
31760;SDS011;18335;51.486;7.562;2023-03-16T01:47:16;12.40;;;4.60;;
31760;SDS011;18335;51.486;7.562;2023-03-16T01:49:44;11.40;;;3.78;;
31760;SDS011;18335;51.486;7.562;2023-03-16T01:52:13;10.30;;;3.60;;
31760;SDS011;18335;51.486;7.562;2023-03-16T01:54:45;9.77;;;3.10;;
31760;SDS011;18335;51.486;7.562;2023-03-16T01:57:14;9.93;;;3.30;;
31760;SDS011;18335;51.486;7.562;2023-03-16T01:59:45;7.32;;;2.97;;
31760;SDS011;18335;51.486;7.562;2023-03-16T02:02:17;9.13;;;3.22;;
31760;SDS011;18335;51.486;7.562;2023-03-16T02:04:48;9.55;;;3.33;;
31760;SDS011;18335;51.486;7.562;2023-03-16T02:07:22;7.65;;;2.80;;
31760;SDS011;18335;51.486;7.562;2023-03-16T02:09:52;8.82;;;2.97;;
31760;SDS011;18335;51.486;7.562;2023-03-16T02:12:22;11.68;;;3.13;;
31760;SDS011;18335;51.486;7.562;2023-03-16T02:14:52;10.07;;;3.35;;
31760;SDS011;18335;51.486;7.562;2023-03-16T02:17:20;12.20;;;4.50;;
31760;SDS011;18335;51.486;7.562;2023-03-16T02:19:54;9.55;;;3.40;;
31760;SDS011;18335;51.486;7.562;2023-03-16T02:22:35;11.48;;;3.63;;
31760;SDS011;18335;51.486;7.562;2023-03-16T02:25:06;9.50;;;3.72;;
31760;SDS011;18335;51.486;7.562;2023-03-16T02:27:36;9.55;;;3.97;;
31760;SDS011;18335;51.486;7.562;2023-03-16T02:30:10;9.27;;;3.60;;
31760;SDS011;18335;51.486;7.562;2023-03-16T02:32:51;8.70;;;4.28;;
31760;SDS011;18335;51.486;7.562;2023-03-16T02:35:20;11.80;;;3.63;;
31760;SDS011;18335;51.486;7.562;2023-03-16T02:37:48;10.15;;;4.22;;
31760;SDS011;18335;51.486;7.562;2023-03-16T02:40:19;17.25;;;4.68;;
31760;SDS011;18335;51.486;7.562;2023-03-16T02:42:52;11.95;;;3.72;;
31760;SDS011;18335;51.486;7.562;2023-03-16T02:45:24;12.25;;;4.28;;
31760;SDS011;18335;51.486;7.562;2023-03-16T02:47:54;9.85;;;3.85;;
31760;SDS011;18335;51.486;7.562;2023-03-16T02:50:23;10.48;;;3.70;;
31760;SDS011;18335;51.486;7.562;2023-03-16T02:52:50;9.18;;;3.65;;
31760;SDS011;18335;51.486;7.562;2023-03-16T02:55:17;11.82;;;3.20;;
31760;SDS011;18335;51.486;7.562;2023-03-16T02:57:45;9.15;;;3.17;;
31760;SDS011;18335;51.486;7.562;2023-03-16T03:00:14;7.05;;;3.20;;
31760;SDS011;18335;51.486;7.562;2023-03-16T03:02:46;7.57;;;3.03;;
31760;SDS011;18335;51.486;7.562;2023-03-16T03:05:13;10.13;;;2.92;;
31760;SDS011;18335;51.486;7.562;2023-03-16T03:07:40;7.63;;;3.10;;
31760;SDS011;18335;51.486;7.562;2023-03-16T03:10:07;8.75;;;3.50;;
31760;SDS011;18335;51.486;7.562;2023-03-16T03:12:36;7.30;;;2.80;;
31760;SDS011;18335;51.486;7.562;2023-03-16T03:15:06;8.35;;;2.83;;
31760;SDS011;18335;51.486;7.562;2023-03-16T03:20:11;9.25;;;2.97;;
31760;SDS011;18335;51.486;7.562;2023-03-16T03:22:41;9.40;;;3.10;;
31760;SDS011;18335;51.486;7.562;2023-03-16T03:25:09;9.10;;;3.25;;
31760;SDS011;18335;51.486;7.562;2023-03-16T03:27:38;8.93;;;2.75;;
31760;SDS011;18335;51.486;7.562;2023-03-16T03:30:08;8.23;;;3.25;;
31760;SDS011;18335;51.486;7.562;2023-03-16T03:32:37;11.20;;;3.10;;
31760;SDS011;18335;51.486;7.562;2023-03-16T03:35:04;8.80;;;3.33;;
31760;SDS011;18335;51.486;7.562;2023-03-16T03:37:33;7.10;;;3.17;;
31760;SDS011;18335;51.486;7.562;2023-03-16T03:40:00;10.45;;;3.10;;
31760;SDS011;18335;51.486;7.562;2023-03-16T03:42:32;8.95;;;3.33;;
31760;SDS011;18335;51.486;7.562;2023-03-16T03:44:59;7.90;;;2.55;;
31760;SDS011;18335;51.486;7.562;2023-03-16T03:47:25;8.63;;;2.97;;
31760;SDS011;18335;51.486;7.562;2023-03-16T03:49:52;5.65;;;2.30;;
31760;SDS011;18335;51.486;7.562;2023-03-16T03:52:19;8.77;;;2.53;;
31760;SDS011;18335;51.486;7.562;2023-03-16T03:54:48;9.23;;;2.50;;
31760;SDS011;18335;51.486;7.562;2023-03-16T03:57:16;8.48;;;2.17;;
31760;SDS011;18335;51.486;7.562;2023-03-16T03:59:43;10.43;;;2.63;;
31760;SDS011;18335;51.486;7.562;2023-03-16T04:02:22;5.88;;;2.55;;
31760;SDS011;18335;51.486;7.562;2023-03-16T04:04:52;8.00;;;2.13;;
31760;SDS011;18335;51.486;7.562;2023-03-16T04:07:19;9.25;;;3.40;;
31760;SDS011;18335;51.486;7.562;2023-03-16T04:09:49;7.85;;;2.35;;
31760;SDS011;18335;51.486;7.562;2023-03-16T04:12:23;6.68;;;2.25;;
31760;SDS011;18335;51.486;7.562;2023-03-16T04:14:50;6.32;;;2.47;;
31760;SDS011;18335;51.486;7.562;2023-03-16T04:17:17;6.22;;;2.20;;
31760;SDS011;18335;51.486;7.562;2023-03-16T04:19:45;7.03;;;1.92;;
31760;SDS011;18335;51.486;7.562;2023-03-16T04:22:14;9.23;;;2.63;;
31760;SDS011;18335;51.486;7.562;2023-03-16T04:24:41;5.32;;;2.13;;
31760;SDS011;18335;51.486;7.562;2023-03-16T04:27:10;9.48;;;2.17;;
31760;SDS011;18335;51.486;7.562;2023-03-16T04:29:37;5.38;;;2.03;;
31760;SDS011;18335;51.486;7.562;2023-03-16T04:32:04;8.13;;;2.47;;
31760;SDS011;18335;51.486;7.562;2023-03-16T04:34:31;7.80;;;2.40;;
31760;SDS011;18335;51.486;7.562;2023-03-16T04:37:02;7.30;;;2.25;;
31760;SDS011;18335;51.486;7.562;2023-03-16T04:39:31;5.63;;;1.95;;
31760;SDS011;18335;51.486;7.562;2023-03-16T04:41:58;6.95;;;2.13;;
31760;SDS011;18335;51.486;7.562;2023-03-16T04:44:27;6.60;;;2.25;;
31760;SDS011;18335;51.486;7.562;2023-03-16T04:46:54;8.82;;;2.55;;
31760;SDS011;18335;51.486;7.562;2023-03-16T04:49:24;6.60;;;1.95;;
31760;SDS011;18335;51.486;7.562;2023-03-16T04:51:51;7.57;;;2.42;;
31760;SDS011;18335;51.486;7.562;2023-03-16T04:54:19;19.45;;;4.18;;
31760;SDS011;18335;51.486;7.562;2023-03-16T04:56:46;5.20;;;1.83;;
31760;SDS011;18335;51.486;7.562;2023-03-16T04:59:28;8.15;;;2.25;;
31760;SDS011;18335;51.486;7.562;2023-03-16T05:02:27;6.75;;;2.47;;
31760;SDS011;18335;51.486;7.562;2023-03-16T05:04:58;6.13;;;2.08;;
31760;SDS011;18335;51.486;7.562;2023-03-16T05:07:25;4.80;;;2.00;;
31760;SDS011;18335;51.486;7.562;2023-03-16T05:09:54;4.80;;;1.95;;
31760;SDS011;18335;51.486;7.562;2023-03-16T05:12:21;7.97;;;2.00;;
31760;SDS011;18335;51.486;7.562;2023-03-16T05:14:53;7.05;;;2.15;;
31760;SDS011;18335;51.486;7.562;2023-03-16T05:17:35;4.57;;;1.75;;
31760;SDS011;18335;51.486;7.562;2023-03-16T05:20:03;4.85;;;2.00;;
31760;SDS011;18335;51.486;7.562;2023-03-16T05:22:33;8.73;;;2.30;;
31760;SDS011;18335;51.486;7.562;2023-03-16T05:25:09;8.45;;;2.38;;
31760;SDS011;18335;51.486;7.562;2023-03-16T05:27:39;4.97;;;2.35;;
31760;SDS011;18335;51.486;7.562;2023-03-16T05:30:11;8.00;;;2.40;;
31760;SDS011;18335;51.486;7.562;2023-03-16T05:32:40;5.53;;;2.28;;
31760;SDS011;18335;51.486;7.562;2023-03-16T05:35:08;6.70;;;2.78;;
31760;SDS011;18335;51.486;7.562;2023-03-16T05:37:37;8.88;;;2.63;;
31760;SDS011;18335;51.486;7.562;2023-03-16T05:40:09;9.50;;;2.60;;
31760;SDS011;18335;51.486;7.562;2023-03-16T05:42:43;7.18;;;3.50;;
31760;SDS011;18335;51.486;7.562;2023-03-16T05:45:12;11.25;;;2.80;;
31760;SDS011;18335;51.486;7.562;2023-03-16T05:47:50;11.23;;;2.95;;
31760;SDS011;18335;51.486;7.562;2023-03-16T05:50:18;8.50;;;2.92;;
31760;SDS011;18335;51.486;7.562;2023-03-16T05:52:45;8.27;;;3.55;;
31760;SDS011;18335;51.486;7.562;2023-03-16T05:55:20;9.40;;;3.22;;
31760;SDS011;18335;51.486;7.562;2023-03-16T05:57:53;7.50;;;3.05;;
31760;SDS011;18335;51.486;7.562;2023-03-16T06:00:21;9.18;;;3.22;;
31760;SDS011;18335;51.486;7.562;2023-03-16T06:03:02;9.07;;;3.00;;
31760;SDS011;18335;51.486;7.562;2023-03-16T06:05:32;8.23;;;3.05;;
31760;SDS011;18335;51.486;7.562;2023-03-16T06:07:59;9.88;;;3.50;;
31760;SDS011;18335;51.486;7.562;2023-03-16T06:10:27;10.02;;;3.22;;
31760;SDS011;18335;51.486;7.562;2023-03-16T06:12:54;9.60;;;3.00;;
31760;SDS011;18335;51.486;7.562;2023-03-16T06:15:22;7.95;;;3.13;;
31760;SDS011;18335;51.486;7.562;2023-03-16T06:17:52;9.02;;;4.22;;
31760;SDS011;18335;51.486;7.562;2023-03-16T06:20:18;8.68;;;3.58;;
31760;SDS011;18335;51.486;7.562;2023-03-16T06:22:45;6.97;;;2.95;;
31760;SDS011;18335;51.486;7.562;2023-03-16T06:25:13;8.95;;;3.45;;
31760;SDS011;18335;51.486;7.562;2023-03-16T06:27:43;10.10;;;3.47;;
31760;SDS011;18335;51.486;7.562;2023-03-16T06:30:14;10.13;;;3.38;;
31760;SDS011;18335;51.486;7.562;2023-03-16T06:32:44;7.20;;;2.85;;
31760;SDS011;18335;51.486;7.562;2023-03-16T06:35:13;9.68;;;4.13;;
31760;SDS011;18335;51.486;7.562;2023-03-16T06:37:59;10.27;;;3.05;;
31760;SDS011;18335;51.486;7.562;2023-03-16T06:41:09;8.95;;;3.42;;
31760;SDS011;18335;51.486;7.562;2023-03-16T06:43:45;8.82;;;3.67;;
31760;SDS011;18335;51.486;7.562;2023-03-16T06:46:13;9.40;;;3.55;;
31760;SDS011;18335;51.486;7.562;2023-03-16T06:48:41;10.98;;;3.90;;
31760;SDS011;18335;51.486;7.562;2023-03-16T06:51:08;9.98;;;3.35;;
31760;SDS011;18335;51.486;7.562;2023-03-16T06:53:35;8.82;;;3.55;;
31760;SDS011;18335;51.486;7.562;2023-03-16T06:56:02;8.85;;;3.22;;
31760;SDS011;18335;51.486;7.562;2023-03-16T06:58:33;7.78;;;3.40;;
31760;SDS011;18335;51.486;7.562;2023-03-16T07:01:01;12.45;;;3.67;;
31760;SDS011;18335;51.486;7.562;2023-03-16T07:03:27;9.93;;;3.22;;
31760;SDS011;18335;51.486;7.562;2023-03-16T07:06:01;10.32;;;3.58;;
31760;SDS011;18335;51.486;7.562;2023-03-16T07:08:27;9.75;;;3.58;;
31760;SDS011;18335;51.486;7.562;2023-03-16T07:10:54;10.93;;;3.70;;
31760;SDS011;18335;51.486;7.562;2023-03-16T07:13:21;10.20;;;3.38;;
31760;SDS011;18335;51.486;7.562;2023-03-16T07:15:48;12.90;;;4.20;;
31760;SDS011;18335;51.486;7.562;2023-03-16T07:18:16;8.43;;;3.55;;
31760;SDS011;18335;51.486;7.562;2023-03-16T07:20:43;13.25;;;3.85;;
31760;SDS011;18335;51.486;7.562;2023-03-16T07:23:12;10.57;;;3.25;;
31760;SDS011;18335;51.486;7.562;2023-03-16T07:25:40;8.23;;;3.60;;
31760;SDS011;18335;51.486;7.562;2023-03-16T07:28:09;13.75;;;4.10;;
31760;SDS011;18335;51.486;7.562;2023-03-16T07:30:39;8.13;;;3.58;;
31760;SDS011;18335;51.486;7.562;2023-03-16T07:33:08;9.32;;;3.00;;
31760;SDS011;18335;51.486;7.562;2023-03-16T07:35:34;8.07;;;3.33;;
31760;SDS011;18335;51.486;7.562;2023-03-16T07:38:01;18.23;;;4.68;;
31760;SDS011;18335;51.486;7.562;2023-03-16T07:40:30;10.45;;;3.53;;
31760;SDS011;18335;51.486;7.562;2023-03-16T07:43:05;11.57;;;3.42;;
31760;SDS011;18335;51.486;7.562;2023-03-16T07:45:34;9.50;;;3.20;;
31760;SDS011;18335;51.486;7.562;2023-03-16T07:48:02;11.00;;;3.63;;
31760;SDS011;18335;51.486;7.562;2023-03-16T07:50:55;7.80;;;3.08;;
31760;SDS011;18335;51.486;7.562;2023-03-16T07:53:23;8.75;;;3.28;;
31760;SDS011;18335;51.486;7.562;2023-03-16T07:56:02;6.20;;;2.72;;
31760;SDS011;18335;51.486;7.562;2023-03-16T07:58:32;8.82;;;3.58;;
31760;SDS011;18335;51.486;7.562;2023-03-16T08:00:59;7.50;;;3.00;;
31760;SDS011;18335;51.486;7.562;2023-03-16T08:03:27;5.97;;;2.60;;
31760;SDS011;18335;51.486;7.562;2023-03-16T08:05:56;6.53;;;2.83;;
31760;SDS011;18335;51.486;7.562;2023-03-16T08:08:23;9.27;;;3.05;;
31760;SDS011;18335;51.486;7.562;2023-03-16T08:10:50;9.50;;;3.00;;
31760;SDS011;18335;51.486;7.562;2023-03-16T08:13:21;7.00;;;3.03;;
31760;SDS011;18335;51.486;7.562;2023-03-16T08:15:48;7.55;;;2.97;;
31760;SDS011;18335;51.486;7.562;2023-03-16T08:18:27;5.82;;;3.00;;
31760;SDS011;18335;51.486;7.562;2023-03-16T08:20:55;7.40;;;2.50;;
31760;SDS011;18335;51.486;7.562;2023-03-16T08:23:22;5.40;;;2.40;;
31760;SDS011;18335;51.486;7.562;2023-03-16T08:25:51;6.38;;;2.25;;
31760;SDS011;18335;51.486;7.562;2023-03-16T08:28:19;7.63;;;2.20;;
31760;SDS011;18335;51.486;7.562;2023-03-16T08:30:48;7.45;;;2.97;;
31760;SDS011;18335;51.486;7.562;2023-03-16T08:33:33;4.15;;;2.10;;
31760;SDS011;18335;51.486;7.562;2023-03-16T08:36:04;4.82;;;2.03;;
31760;SDS011;18335;51.486;7.562;2023-03-16T08:38:31;5.72;;;1.92;;
31760;SDS011;18335;51.486;7.562;2023-03-16T08:41:03;7.43;;;1.90;;
31760;SDS011;18335;51.486;7.562;2023-03-16T08:43:32;6.63;;;2.40;;
31760;SDS011;18335;51.486;7.562;2023-03-16T08:46:01;7.25;;;1.90;;
31760;SDS011;18335;51.486;7.562;2023-03-16T08:48:38;4.47;;;1.85;;
31760;SDS011;18335;51.486;7.562;2023-03-16T08:51:06;5.65;;;2.17;;
31760;SDS011;18335;51.486;7.562;2023-03-16T08:53:34;4.95;;;2.20;;
31760;SDS011;18335;51.486;7.562;2023-03-16T08:56:01;8.48;;;3.58;;
31760;SDS011;18335;51.486;7.562;2023-03-16T08:58:30;6.05;;;2.05;;
31760;SDS011;18335;51.486;7.562;2023-03-16T09:00:59;10.40;;;3.47;;
31760;SDS011;18335;51.486;7.562;2023-03-16T09:03:27;5.57;;;2.05;;
31760;SDS011;18335;51.486;7.562;2023-03-16T09:05:59;6.60;;;2.25;;
31760;SDS011;18335;51.486;7.562;2023-03-16T09:08:27;4.15;;;1.80;;
31760;SDS011;18335;51.486;7.562;2023-03-16T09:10:57;4.75;;;2.15;;
31760;SDS011;18335;51.486;7.562;2023-03-16T09:13:25;3.83;;;1.67;;
31760;SDS011;18335;51.486;7.562;2023-03-16T09:15:53;6.10;;;1.85;;
31760;SDS011;18335;51.486;7.562;2023-03-16T09:18:22;4.13;;;1.75;;
31760;SDS011;18335;51.486;7.562;2023-03-16T09:20:50;4.00;;;1.70;;
31760;SDS011;18335;51.486;7.562;2023-03-16T09:23:17;6.47;;;2.20;;
31760;SDS011;18335;51.486;7.562;2023-03-16T09:25:45;5.20;;;2.00;;
31760;SDS011;18335;51.486;7.562;2023-03-16T09:28:12;7.60;;;3.10;;
31760;SDS011;18335;51.486;7.562;2023-03-16T09:30:40;6.57;;;2.20;;
31760;SDS011;18335;51.486;7.562;2023-03-16T09:33:06;4.95;;;2.00;;
31760;SDS011;18335;51.486;7.562;2023-03-16T09:35:35;4.68;;;2.00;;
31760;SDS011;18335;51.486;7.562;2023-03-16T09:38:02;5.53;;;2.30;;
31760;SDS011;18335;51.486;7.562;2023-03-16T09:40:29;9.90;;;2.92;;
31760;SDS011;18335;51.486;7.562;2023-03-16T09:43:02;6.63;;;2.00;;
31760;SDS011;18335;51.486;7.562;2023-03-16T09:45:36;6.55;;;2.20;;
31760;SDS011;18335;51.486;7.562;2023-03-16T09:48:09;7.95;;;2.10;;
31760;SDS011;18335;51.486;7.562;2023-03-16T09:50:39;8.98;;;2.30;;
31760;SDS011;18335;51.486;7.562;2023-03-16T09:53:11;8.77;;;2.22;;
31760;SDS011;18335;51.486;7.562;2023-03-16T09:55:44;3.55;;;1.92;;
31760;SDS011;18335;51.486;7.562;2023-03-16T09:58:15;6.80;;;2.42;;
31760;SDS011;18335;51.486;7.562;2023-03-16T10:00:45;5.10;;;2.05;;
31760;SDS011;18335;51.486;7.562;2023-03-16T10:03:26;5.85;;;1.98;;
31760;SDS011;18335;51.486;7.562;2023-03-16T10:06:08;7.13;;;2.17;;
31760;SDS011;18335;51.486;7.562;2023-03-16T10:08:38;9.65;;;2.70;;
31760;SDS011;18335;51.486;7.562;2023-03-16T10:11:12;4.53;;;1.98;;
31760;SDS011;18335;51.486;7.562;2023-03-16T10:13:48;8.48;;;2.53;;
31760;SDS011;18335;51.486;7.562;2023-03-16T10:16:20;5.47;;;2.35;;
31760;SDS011;18335;51.486;7.562;2023-03-16T10:18:52;7.78;;;2.75;;
31760;SDS011;18335;51.486;7.562;2023-03-16T10:21:27;5.88;;;2.00;;
31760;SDS011;18335;51.486;7.562;2023-03-16T10:23:58;6.32;;;2.22;;
31760;SDS011;18335;51.486;7.562;2023-03-16T10:26:30;5.88;;;2.47;;
31760;SDS011;18335;51.486;7.562;2023-03-16T10:29:02;5.30;;;2.33;;
31760;SDS011;18335;51.486;7.562;2023-03-16T10:31:31;4.72;;;2.22;;
31760;SDS011;18335;51.486;7.562;2023-03-16T10:34:03;5.10;;;2.10;;
31760;SDS011;18335;51.486;7.562;2023-03-16T10:36:34;5.43;;;1.80;;
31760;SDS011;18335;51.486;7.562;2023-03-16T10:39:04;6.75;;;2.17;;
31760;SDS011;18335;51.486;7.562;2023-03-16T10:41:34;6.63;;;1.90;;
31760;SDS011;18335;51.486;7.562;2023-03-16T10:44:03;5.28;;;2.30;;
31760;SDS011;18335;51.486;7.562;2023-03-16T10:46:37;4.50;;;1.98;;
31760;SDS011;18335;51.486;7.562;2023-03-16T10:49:16;5.45;;;2.08;;
31760;SDS011;18335;51.486;7.562;2023-03-16T10:51:46;6.72;;;2.25;;
31760;SDS011;18335;51.486;7.562;2023-03-16T10:54:14;7.65;;;2.50;;
31760;SDS011;18335;51.486;7.562;2023-03-16T10:56:44;6.00;;;1.95;;
31760;SDS011;18335;51.486;7.562;2023-03-16T10:59:11;3.97;;;1.50;;
31760;SDS011;18335;51.486;7.562;2023-03-16T11:01:43;6.50;;;1.70;;
31760;SDS011;18335;51.486;7.562;2023-03-16T11:04:12;4.55;;;2.05;;
31760;SDS011;18335;51.486;7.562;2023-03-16T11:06:50;5.72;;;1.70;;
31760;SDS011;18335;51.486;7.562;2023-03-16T11:09:20;7.57;;;2.10;;
31760;SDS011;18335;51.486;7.562;2023-03-16T11:11:50;5.57;;;2.10;;
31760;SDS011;18335;51.486;7.562;2023-03-16T11:14:18;4.10;;;1.77;;
31760;SDS011;18335;51.486;7.562;2023-03-16T11:16:48;4.10;;;1.88;;
31760;SDS011;18335;51.486;7.562;2023-03-16T11:19:20;7.50;;;2.00;;
31760;SDS011;18335;51.486;7.562;2023-03-16T11:21:52;6.80;;;1.50;;
31760;SDS011;18335;51.486;7.562;2023-03-16T11:24:26;5.00;;;1.67;;
31760;SDS011;18335;51.486;7.562;2023-03-16T11:26:59;7.72;;;2.13;;
31760;SDS011;18335;51.486;7.562;2023-03-16T11:29:31;5.80;;;3.05;;
31760;SDS011;18335;51.486;7.562;2023-03-16T11:32:10;4.05;;;1.52;;
31760;SDS011;18335;51.486;7.562;2023-03-16T11:34:41;4.75;;;1.85;;
31760;SDS011;18335;51.486;7.562;2023-03-16T11:37:13;5.88;;;1.85;;
31760;SDS011;18335;51.486;7.562;2023-03-16T11:39:54;4.70;;;1.85;;
31760;SDS011;18335;51.486;7.562;2023-03-16T11:42:35;5.85;;;2.08;;
31760;SDS011;18335;51.486;7.562;2023-03-16T11:45:08;3.03;;;1.40;;
31760;SDS011;18335;51.486;7.562;2023-03-16T11:50:47;5.43;;;1.98;;
31760;SDS011;18335;51.486;7.562;2023-03-16T11:53:28;5.93;;;1.95;;
31760;SDS011;18335;51.486;7.562;2023-03-16T11:56:14;6.13;;;2.00;;
31760;SDS011;18335;51.486;7.562;2023-03-16T11:58:58;7.45;;;1.92;;
31760;SDS011;18335;51.486;7.562;2023-03-16T12:01:34;6.00;;;1.83;;
31760;SDS011;18335;51.486;7.562;2023-03-16T12:04:19;6.60;;;1.83;;
31760;SDS011;18335;51.486;7.562;2023-03-16T12:07:02;5.30;;;1.48;;
31760;SDS011;18335;51.486;7.562;2023-03-16T12:09:51;6.65;;;1.90;;
31760;SDS011;18335;51.486;7.562;2023-03-16T12:12:32;5.80;;;2.55;;
31760;SDS011;18335;51.486;7.562;2023-03-16T12:15:18;5.22;;;1.58;;
31760;SDS011;18335;51.486;7.562;2023-03-16T12:17:59;4.30;;;1.55;;
31760;SDS011;18335;51.486;7.562;2023-03-16T12:20:33;7.10;;;1.52;;
31760;SDS011;18335;51.486;7.562;2023-03-16T12:23:07;5.25;;;2.15;;
31760;SDS011;18335;51.486;7.562;2023-03-16T12:25:41;7.82;;;1.70;;
31760;SDS011;18335;51.486;7.562;2023-03-16T12:28:13;7.05;;;2.03;;
31760;SDS011;18335;51.486;7.562;2023-03-16T12:30:49;3.22;;;1.50;;
31760;SDS011;18335;51.486;7.562;2023-03-16T12:33:26;6.80;;;1.50;;
31760;SDS011;18335;51.486;7.562;2023-03-16T12:36:06;4.85;;;1.30;;
31760;SDS011;18335;51.486;7.562;2023-03-16T12:38:50;4.40;;;1.50;;
31760;SDS011;18335;51.486;7.562;2023-03-16T12:41:26;6.25;;;1.40;;
31760;SDS011;18335;51.486;7.562;2023-03-16T12:44:08;7.72;;;1.50;;
31760;SDS011;18335;51.486;7.562;2023-03-16T12:46:41;6.38;;;1.45;;
31760;SDS011;18335;51.486;7.562;2023-03-16T12:49:17;3.90;;;1.35;;
31760;SDS011;18335;51.486;7.562;2023-03-16T12:51:56;6.10;;;1.08;;
31760;SDS011;18335;51.486;7.562;2023-03-16T12:54:26;3.53;;;1.40;;
31760;SDS011;18335;51.486;7.562;2023-03-16T12:56:59;4.68;;;1.42;;
31760;SDS011;18335;51.486;7.562;2023-03-16T12:59:35;4.70;;;1.17;;
31760;SDS011;18335;51.486;7.562;2023-03-16T13:02:04;3.35;;;1.30;;
31760;SDS011;18335;51.486;7.562;2023-03-16T13:04:39;3.88;;;1.30;;
31760;SDS011;18335;51.486;7.562;2023-03-16T13:07:09;9.23;;;1.70;;
31760;SDS011;18335;51.486;7.562;2023-03-16T13:09:43;6.80;;;2.38;;
31760;SDS011;18335;51.486;7.562;2023-03-16T13:12:22;4.82;;;1.55;;
31760;SDS011;18335;51.486;7.562;2023-03-16T13:14:50;6.93;;;2.63;;
31760;SDS011;18335;51.486;7.562;2023-03-16T13:17:23;5.03;;;1.58;;
31760;SDS011;18335;51.486;7.562;2023-03-16T13:20:00;6.65;;;1.30;;
31760;SDS011;18335;51.486;7.562;2023-03-16T13:22:39;4.82;;;1.63;;
31760;SDS011;18335;51.486;7.562;2023-03-16T13:25:13;6.60;;;1.75;;
31760;SDS011;18335;51.486;7.562;2023-03-16T13:27:48;5.55;;;1.73;;
31760;SDS011;18335;51.486;7.562;2023-03-16T13:30:18;8.02;;;1.55;;
31760;SDS011;18335;51.486;7.562;2023-03-16T13:32:46;6.00;;;1.60;;
31760;SDS011;18335;51.486;7.562;2023-03-16T13:35:14;3.92;;;1.63;;
31760;SDS011;18335;51.486;7.562;2023-03-16T13:37:43;6.18;;;1.38;;
31760;SDS011;18335;51.486;7.562;2023-03-16T13:40:16;7.43;;;1.60;;
31760;SDS011;18335;51.486;7.562;2023-03-16T13:42:46;4.50;;;1.80;;
31760;SDS011;18335;51.486;7.562;2023-03-16T13:45:19;4.72;;;1.70;;
31760;SDS011;18335;51.486;7.562;2023-03-16T13:47:48;5.80;;;1.40;;
31760;SDS011;18335;51.486;7.562;2023-03-16T13:50:16;4.88;;;1.70;;
31760;SDS011;18335;51.486;7.562;2023-03-16T13:52:49;8.80;;;2.00;;
31760;SDS011;18335;51.486;7.562;2023-03-16T13:55:20;9.57;;;2.45;;
31760;SDS011;18335;51.486;7.562;2023-03-16T13:57:53;7.88;;;1.60;;
31760;SDS011;18335;51.486;7.562;2023-03-16T14:00:20;4.93;;;1.70;;
31760;SDS011;18335;51.486;7.562;2023-03-16T14:02:50;6.22;;;1.80;;
31760;SDS011;18335;51.486;7.562;2023-03-16T14:05:20;6.82;;;1.90;;
31760;SDS011;18335;51.486;7.562;2023-03-16T14:07:50;5.45;;;1.80;;
31760;SDS011;18335;51.486;7.562;2023-03-16T14:10:19;7.20;;;2.30;;
31760;SDS011;18335;51.486;7.562;2023-03-16T14:12:50;4.55;;;1.30;;
31760;SDS011;18335;51.486;7.562;2023-03-16T14:15:19;8.10;;;1.65;;
31760;SDS011;18335;51.486;7.562;2023-03-16T14:17:48;7.00;;;1.77;;
31760;SDS011;18335;51.486;7.562;2023-03-16T14:20:19;8.18;;;1.83;;
31760;SDS011;18335;51.486;7.562;2023-03-16T14:22:49;7.05;;;2.17;;
31760;SDS011;18335;51.486;7.562;2023-03-16T14:25:18;4.88;;;1.73;;
31760;SDS011;18335;51.486;7.562;2023-03-16T14:27:48;3.63;;;1.50;;
31760;SDS011;18335;51.486;7.562;2023-03-16T14:30:24;5.85;;;1.55;;
31760;SDS011;18335;51.486;7.562;2023-03-16T14:32:53;3.88;;;1.52;;
31760;SDS011;18335;51.486;7.562;2023-03-16T14:35:24;4.88;;;1.48;;
31760;SDS011;18335;51.486;7.562;2023-03-16T14:37:53;4.38;;;1.63;;
31760;SDS011;18335;51.486;7.562;2023-03-16T14:40:25;3.45;;;1.20;;
31760;SDS011;18335;51.486;7.562;2023-03-16T14:42:54;5.05;;;1.73;;
31760;SDS011;18335;51.486;7.562;2023-03-16T14:45:26;3.88;;;1.30;;
31760;SDS011;18335;51.486;7.562;2023-03-16T14:48:00;7.50;;;1.83;;
31760;SDS011;18335;51.486;7.562;2023-03-16T14:50:30;6.03;;;1.63;;
31760;SDS011;18335;51.486;7.562;2023-03-16T14:52:58;7.60;;;2.17;;
31760;SDS011;18335;51.486;7.562;2023-03-16T14:55:28;8.40;;;1.88;;
31760;SDS011;18335;51.486;7.562;2023-03-16T14:57:55;7.43;;;1.73;;
31760;SDS011;18335;51.486;7.562;2023-03-16T15:00:22;6.60;;;1.75;;
31760;SDS011;18335;51.486;7.562;2023-03-16T15:02:54;4.05;;;1.45;;
31760;SDS011;18335;51.486;7.562;2023-03-16T15:05:29;7.25;;;1.88;;
31760;SDS011;18335;51.486;7.562;2023-03-16T15:07:59;7.57;;;1.75;;
31760;SDS011;18335;51.486;7.562;2023-03-16T15:10:28;4.43;;;1.65;;
31760;SDS011;18335;51.486;7.562;2023-03-16T15:12:59;3.50;;;1.33;;
31760;SDS011;18335;51.486;7.562;2023-03-16T15:15:37;7.68;;;1.33;;